Time;durP1;ratioP1;P1;durP2;ratioP2;P2;SDS_P1;SDS_P2;PMS_P1;PMS_P2;Temp;Humidity;BMP_temperature;BMP_pressure;BME280_temperature;BME280_humidity;BME280_pressure;Samples;Min_cycle;Max_cycle;Signal;HPM_P1;HPM_P2
2021/07/09 00:02:10;;;;;;;12.57;7.40;;;17.10;89.50;;;;;;5093943;28;20373;-82
2021/07/09 00:04:36;;;;;;;11.52;7.00;;;17.00;89.50;;;;;;5075712;28;20378;-83
2021/07/09 00:07:02;;;;;;;12.57;6.35;;;17.00;90.00;;;;;;5093707;28;20994;-82
2021/07/09 00:09:27;;;;;;;7.77;6.30;;;17.00;89.70;;;;;;5093774;28;20461;-81
2021/07/09 00:11:55;;;;;;;14.38;6.90;;;17.00;89.80;;;;;;5093672;28;20393;-82
2021/07/09 00:14:32;;;;;;;10.70;6.40;;;17.00;89.90;;;;;;5093619;28;20397;-82
2021/07/09 00:16:59;;;;;;;13.70;5.95;;;17.00;90.00;;;;;;5075401;28;20723;-82
2021/07/09 00:19:25;;;;;;;11.05;6.57;;;17.00;89.90;;;;;;5075220;28;20463;-86
2021/07/09 00:21:50;;;;;;;8.82;6.38;;;17.00;89.60;;;;;;5075396;28;20378;-83
2021/07/09 00:24:17;;;;;;;9.87;7.07;;;17.00;89.80;;;;;;5093686;28;20768;-83
2021/07/09 00:26:42;;;;;;;10.17;7.00;;;17.00;89.80;;;;;;5093391;28;20710;-83
2021/07/09 00:29:08;;;;;;;10.47;8.13;;;17.00;89.80;;;;;;5093180;28;20385;-81
2021/07/09 00:31:35;;;;;;;10.25;7.93;;;16.90;90.00;;;;;;5093585;28;20369;-81
2021/07/09 00:34:03;;;;;;;13.35;7.88;;;16.90;90.40;;;;;;5093257;28;20374;-82
2021/07/09 00:36:29;;;;;;;11.47;7.20;;;16.90;90.50;;;;;;5075321;28;20412;-83
2021/07/09 00:38:55;;;;;;;11.50;8.50;;;16.90;90.50;;;;;;5092964;28;20390;-82
2021/07/09 00:41:21;;;;;;;12.00;8.93;;;17.00;90.10;;;;;;5093480;28;20644;-81
2021/07/09 00:43:46;;;;;;;13.93;8.93;;;17.00;89.90;;;;;;5093157;28;20370;-82
2021/07/09 00:46:12;;;;;;;11.45;7.85;;;16.90;90.40;;;;;;5074568;28;20393;-81
2021/07/09 00:48:38;;;;;;;12.10;7.60;;;16.90;90.60;;;;;;5092420;28;20397;-82
2021/07/09 00:51:09;;;;;;;12.97;8.97;;;16.90;90.30;;;;;;5093258;28;20374;-82
2021/07/09 00:53:35;;;;;;;13.20;7.75;;;16.90;90.40;;;;;;5074913;28;20726;-81
2021/07/09 00:56:02;;;;;;;10.53;8.03;;;17.00;90.10;;;;;;5092850;28;20444;-81
2021/07/09 00:58:28;;;;;;;13.95;9.30;;;17.00;90.00;;;;;;5074731;28;20439;-82
2021/07/09 01:00:54;;;;;;;15.23;8.73;;;16.90;90.10;;;;;;5092533;28;20378;-82
2021/07/09 01:03:20;;;;;;;15.85;10.30;;;16.90;90.20;;;;;;5092645;28;20926;-81
2021/07/09 01:05:46;;;;;;;13.23;9.23;;;17.00;90.20;;;;;;5074560;28;20420;-84
2021/07/09 01:08:12;;;;;;;16.77;10.27;;;17.00;90.00;;;;;;5092652;28;20405;-83
2021/07/09 01:10:39;;;;;;;13.18;9.18;;;17.00;89.90;;;;;;5092248;28;20370;-83
2021/07/09 01:13:09;;;;;;;15.57;11.20;;;17.00;90.10;;;;;;5074557;28;20512;-82
2021/07/09 01:15:34;;;;;;;15.43;10.45;;;17.00;90.10;;;;;;5074187;28;20754;-82
2021/07/09 01:18:02;;;;;;;15.33;9.83;;;16.90;90.10;;;;;;5074367;28;20382;-82
2021/07/09 01:20:27;;;;;;;17.60;10.57;;;16.90;90.00;;;;;;5073981;28;20382;-82
2021/07/09 01:22:55;;;;;;;16.10;11.53;;;16.90;90.20;;;;;;5092492;28;20465;-82
2021/07/09 01:25:24;;;;;;;17.45;11.23;;;16.90;90.30;;;;;;5092026;28;20418;-81
2021/07/09 01:28:03;;;;;;;14.93;9.90;;;16.90;90.50;;;;;;5073822;28;20479;-83
2021/07/09 01:30:29;;;;;;;17.25;11.18;;;16.90;90.20;;;;;;5073986;28;20426;-82
2021/07/09 01:32:55;;;;;;;16.38;9.80;;;16.90;90.10;;;;;;5073751;28;20378;-82
2021/07/09 01:35:23;;;;;;;16.35;10.15;;;16.90;90.10;;;;;;5092175;28;20401;-82
2021/07/09 01:37:55;;;;;;;15.35;10.40;;;16.90;90.30;;;;;;5092120;28;20401;-82
2021/07/09 01:40:21;;;;;;;21.70;11.73;;;16.90;90.30;;;;;;5073759;28;20382;-83
2021/07/09 01:42:46;;;;;;;20.13;12.07;;;16.90;90.50;;;;;;5091781;28;20415;-82
2021/07/09 01:45:12;;;;;;;19.10;11.00;;;16.90;90.30;;;;;;5073687;28;20393;-82
2021/07/09 01:47:37;;;;;;;15.85;10.60;;;16.90;90.40;;;;;;5091286;28;20389;-82
2021/07/09 01:50:05;;;;;;;20.77;11.37;;;16.90;90.20;;;;;;5073557;28;20846;-82
2021/07/09 01:52:31;;;;;;;18.40;11.50;;;16.90;90.50;;;;;;5091692;28;20427;-81
2021/07/09 01:54:59;;;;;;;20.90;11.68;;;16.90;90.30;;;;;;5090815;28;20766;-82
2021/07/09 01:57:26;;;;;;;16.42;10.75;;;16.90;90.20;;;;;;5091048;28;20374;-83
2021/07/09 01:59:51;;;;;;;17.17;10.73;;;16.90;90.20;;;;;;5072738;28;20389;-82
2021/07/09 02:02:17;;;;;;;15.20;10.00;;;16.90;90.00;;;;;;5091339;28;20819;-82
2021/07/09 02:04:55;;;;;;;20.60;10.37;;;16.90;90.40;;;;;;5072468;28;20878;-81
2021/07/09 02:07:22;;;;;;;21.38;13.13;;;16.90;90.40;;;;;;5089038;28;20370;-83
2021/07/09 02:09:57;;;;;;;18.05;11.43;;;16.80;90.20;;;;;;5072452;28;20382;-82
2021/07/09 02:12:25;;;;;;;16.45;11.32;;;16.90;90.60;;;;;;5071073;28;20880;-81
2021/07/09 02:14:52;;;;;;;16.95;11.15;;;16.90;90.40;;;;;;5090268;28;20406;-83
2021/07/09 02:17:19;;;;;;;14.57;9.43;;;16.90;90.40;;;;;;5090730;28;20706;-82
2021/07/09 02:19:47;;;;;;;18.73;9.80;;;16.80;90.60;;;;;;5090586;28;20388;-82
2021/07/09 02:22:14;;;;;;;15.55;9.85;;;16.80;90.40;;;;;;5091044;28;20367;-81
2021/07/09 02:24:42;;;;;;;16.95;10.98;;;16.90;90.40;;;;;;5098280;28;20389;-81
2021/07/09 02:27:07;;;;;;;17.10;9.95;;;16.90;90.30;;;;;;5087773;28;20373;-82
2021/07/09 02:29:34;;;;;;;15.57;9.98;;;16.80;90.50;;;;;;5090763;28;20722;-82
2021/07/09 02:32:02;;;;;;;17.45;10.68;;;16.80;90.40;;;;;;5072808;28;20916;-83
2021/07/09 02:34:28;;;;;;;16.92;9.45;;;16.80;90.50;;;;;;5091075;28;20405;-82
2021/07/09 02:36:55;;;;;;;17.40;10.05;;;16.80;90.30;;;;;;5089248;28;20382;-81
2021/07/09 02:39:21;;;;;;;17.70;11.40;;;16.80;90.00;;;;;;5090935;28;20862;-81
2021/07/09 02:41:47;;;;;;;23.50;12.27;;;16.80;90.40;;;;;;5090822;28;20835;-82
2021/07/09 02:44:12;;;;;;;17.53;11.70;;;16.80;90.30;;;;;;5090984;28;20366;-83
2021/07/09 02:46:38;;;;;;;14.27;9.30;;;16.80;90.60;;;;;;5072879;28;20451;-82
2021/07/09 02:49:03;;;;;;;14.77;9.02;;;16.80;90.80;;;;;;5090401;28;20419;-82
2021/07/09 02:51:29;;;;;;;15.57;9.57;;;16.80;90.30;;;;;;5090551;28;20370;-81
2021/07/09 02:53:55;;;;;;;13.87;9.17;;;16.80;90.50;;;;;;5072432;28;20382;-82
2021/07/09 02:56:20;;;;;;;17.48;11.75;;;16.80;90.50;;;;;;5072474;28;20416;-81
2021/07/09 02:58:46;;;;;;;17.10;10.20;;;16.70;91.00;;;;;;5072345;28;20382;-81
2021/07/09 03:01:11;;;;;;;17.47;11.10;;;16.70;90.90;;;;;;5090465;28;20409;-83
2021/07/09 03:03:37;;;;;;;16.98;10.85;;;16.70;91.00;;;;;;5090851;28;20382;-82
2021/07/09 03:06:03;;;;;;;15.83;10.77;;;16.80;90.60;;;;;;5090694;28;20370;-81
2021/07/09 03:08:28;;;;;;;16.27;12.13;;;16.80;90.70;;;;;;5072073;28;20381;-81
2021/07/09 03:10:54;;;;;;;21.17;11.63;;;16.80;90.30;;;;;;5089789;28;20382;-81
2021/07/09 03:13:19;;;;;;;15.17;10.30;;;16.80;90.60;;;;;;5090615;28;20370;-83
2021/07/09 03:15:45;;;;;;;17.85;11.20;;;16.80;90.60;;;;;;5090258;28;20397;-82
2021/07/09 03:18:10;;;;;;;17.10;10.37;;;16.80;90.50;;;;;;5090525;28;20413;-83
2021/07/09 03:20:36;;;;;;;24.47;13.33;;;16.80;90.70;;;;;;5071863;28;20393;-81
2021/07/09 03:23:01;;;;;;;19.30;11.38;;;16.80;90.70;;;;;;5090674;28;20707;-82
2021/07/09 03:25:27;;;;;;;18.27;11.87;;;16.70;91.10;;;;;;5090422;28;20900;-81
2021/07/09 03:27:52;;;;;;;19.20;11.20;;;16.80;90.90;;;;;;5090472;28;20385;-82
2021/07/09 03:30:18;;;;;;;18.92;12.43;;;16.80;90.60;;;;;;5089712;28;20370;-81
2021/07/09 03:32:44;;;;;;;21.80;12.13;;;16.80;90.60;;;;;;5090611;28;20784;-81
2021/07/09 03:35:10;;;;;;;17.27;11.60;;;16.80;90.40;;;;;;5090229;28;20516;-83
2021/07/09 03:37:36;;;;;;;25.80;15.55;;;16.80;90.60;;;;;;5090145;28;20561;-81
2021/07/09 03:40:03;;;;;;;30.80;16.53;;;16.60;91.90;;;;;;5071752;28;20923;-81
2021/07/09 03:42:28;;;;;;;26.33;15.60;;;16.30;93.30;;;;;;5090373;28;20452;-82
2021/07/09 03:44:54;;;;;;;27.47;15.70;;;16.50;92.20;;;;;;5090229;28;20378;-81
2021/07/09 03:47:19;;;;;;;24.90;14.52;;;16.50;92.30;;;;;;5071814;28;20763;-82
2021/07/09 03:49:45;;;;;;;25.10;15.27;;;16.50;92.20;;;;;;5090421;28;20366;-81
2021/07/09 03:52:10;;;;;;;23.27;14.63;;;16.60;91.80;;;;;;5090140;28;20446;-82
2021/07/09 03:54:36;;;;;;;24.63;13.97;;;16.60;91.80;;;;;;5090156;28;20516;-81
2021/07/09 03:57:03;;;;;;;28.70;15.13;;;16.70;91.40;;;;;;5071751;28;20471;-81
2021/07/09 03:59:28;;;;;;;29.52;15.25;;;16.70;91.40;;;;;;5090136;28;20461;-81
2021/07/09 04:01:54;;;;;;;24.33;13.10;;;16.60;91.40;;;;;;5090112;28;20454;-81
2021/07/09 04:04:19;;;;;;;26.48;15.65;;;16.70;91.30;;;;;;5090341;28;20378;-81
2021/07/09 04:06:45;;;;;;;25.77;14.27;;;16.70;91.10;;;;;;5090037;28;20454;-83
2021/07/09 04:09:10;;;;;;;25.87;14.87;;;16.70;91.40;;;;;;5090035;28;20791;-81
2021/07/09 04:11:36;;;;;;;30.38;16.45;;;16.80;91.20;;;;;;5071717;28;20391;-81
2021/07/09 04:14:01;;;;;;;26.83;15.87;;;16.70;91.60;;;;;;5090554;28;20400;-82
2021/07/09 04:16:27;;;;;;;24.03;15.13;;;16.60;91.50;;;;;;5089896;28;20418;-83
2021/07/09 04:18:52;;;;;;;27.23;16.25;;;16.70;91.40;;;;;;5089633;28;20374;-81
2021/07/09 04:21:18;;;;;;;26.53;17.00;;;16.70;91.90;;;;;;5073314;28;20424;-81
2021/07/09 04:23:44;;;;;;;29.90;16.58;;;16.60;92.10;;;;;;5093509;28;20386;-81
2021/07/09 04:26:10;;;;;;;31.17;17.40;;;16.60;92.20;;;;;;5093806;28;20769;-81
2021/07/09 04:28:35;;;;;;;30.70;17.90;;;16.60;92.20;;;;;;5093067;28;20382;-82
2021/07/09 04:31:01;;;;;;;27.53;16.83;;;16.60;92.00;;;;;;5093654;28;20548;-81
2021/07/09 04:33:26;;;;;;;30.33;17.30;;;16.70;91.80;;;;;;5074997;28;20379;-80
2021/07/09 04:35:52;;;;;;;34.30;18.93;;;16.70;91.70;;;;;;5075209;28;20436;-81
2021/07/09 04:38:18;;;;;;;34.40;18.67;;;16.60;92.30;;;;;;5074749;28;20493;-83
2021/07/09 04:40:44;;;;;;;30.33;19.60;;;16.70;92.40;;;;;;5093666;28;20567;-83
2021/07/09 04:43:09;;;;;;;38.37;21.00;;;16.60;92.40;;;;;;5092794;28;20430;-83
2021/07/09 04:45:35;;;;;;;31.10;19.40;;;16.50;93.40;;;;;;5093055;28;20428;-87
2021/07/09 04:48:01;;;;;;;38.92;22.58;;;16.50;93.20;;;;;;5093114;28;20366;-81
2021/07/09 04:50:26;;;;;;;46.97;24.70;;;16.50;93.70;;;;;;5074548;28;20382;-81
2021/07/09 04:52:52;;;;;;;39.67;22.23;;;16.40;94.50;;;;;;5093109;28;20375;-82
2021/07/09 04:55:17;;;;;;;44.60;24.20;;;16.40;94.20;;;;;;5092794;28;20446;-80
2021/07/09 04:57:43;;;;;;;49.80;26.03;;;16.40;94.60;;;;;;5074484;28;20398;-80
2021/07/09 05:00:09;;;;;;;46.17;26.53;;;16.40;95.00;;;;;;5074218;28;20385;-80
2021/07/09 05:02:38;;;;;;;49.38;26.85;;;16.30;95.20;;;;;;5093102;28;20388;-80
2021/07/09 05:05:13;;;;;;;51.20;27.15;;;16.30;95.30;;;;;;5074367;28;20378;-80
2021/07/09 05:07:38;;;;;;;41.83;24.67;;;16.40;95.20;;;;;;5092496;28;20671;-81
2021/07/09 05:10:05;;;;;;;47.83;27.07;;;16.40;95.10;;;;;;5092225;28;20842;-81
2021/07/09 05:12:31;;;;;;;44.13;24.30;;;16.50;94.70;;;;;;5092523;28;20389;-80
2021/07/09 05:14:56;;;;;;;39.63;24.67;;;16.50;94.40;;;;;;5092382;28;20397;-81
2021/07/09 05:17:22;;;;;;;34.35;21.27;;;16.60;94.00;;;;;;5092173;28;20377;-80
2021/07/09 05:19:47;;;;;;;39.63;23.97;;;16.60;93.60;;;;;;5092159;28;20719;-80
2021/07/09 05:22:13;;;;;;;40.00;24.57;;;16.70;93.90;;;;;;5073803;28;20477;-80
2021/07/09 05:24:39;;;;;;;47.53;27.90;;;16.70;93.80;;;;;;5092237;28;20378;-81
2021/07/09 05:27:05;;;;;;;51.83;29.27;;;16.60;94.50;;;;;;5091933;28;20374;-80
2021/07/09 05:29:31;;;;;;;51.47;28.48;;;16.60;94.40;;;;;;5092027;28;20370;-81
2021/07/09 05:31:58;;;;;;;73.07;32.23;;;16.60;94.90;;;;;;5091822;28;20906;-79
2021/07/09 05:34:23;;;;;;;55.45;29.77;;;16.60;95.20;;;;;;5091537;28;20374;-81
2021/07/09 05:36:49;;;;;;;62.60;34.13;;;16.60;95.40;;;;;;5091886;28;20468;-81
2021/07/09 05:39:15;;;;;;;67.20;36.33;;;16.60;95.30;;;;;;5091904;28;20428;-80
2021/07/09 05:41:42;;;;;;;65.40;36.00;;;16.60;95.40;;;;;;5073511;28;20389;-80
2021/07/09 05:44:08;;;;;;;57.55;31.55;;;16.60;95.30;;;;;;5091386;28;20389;-80
2021/07/09 05:46:36;;;;;;;62.78;34.60;;;16.60;95.20;;;;;;5091137;28;21291;-79
2021/07/09 05:49:01;;;;;;;80.90;39.97;;;16.70;95.10;;;;;;5072958;28;20378;-79
2021/07/09 05:51:27;;;;;;;91.30;42.90;;;16.60;95.80;;;;;;5091717;28;20470;-80
2021/07/09 05:53:53;;;;;;;88.10;45.25;;;16.70;95.60;;;;;;5090766;28;20378;-81
2021/07/09 05:56:19;;;;;;;90.63;46.17;;;16.70;95.80;;;;;;5088472;28;20402;-79
2021/07/09 05:58:44;;;;;;;117.30;48.97;;;16.80;95.70;;;;;;5089808;28;20447;-79
2021/07/09 06:01:10;;;;;;;103.97;50.28;;;16.80;95.70;;;;;;5090700;28;20790;-79
2021/07/09 06:03:36;;;;;;;111.73;53.83;;;16.80;95.70;;;;;;5090114;28;20462;-82
2021/07/09 06:06:02;;;;;;;115.93;53.07;;;16.80;95.70;;;;;;5090973;28;20818;-79
2021/07/09 06:08:29;;;;;;;108.13;53.30;;;16.80;95.80;;;;;;5089818;28;20880;-79
2021/07/09 06:10:55;;;;;;;101.00;50.00;;;16.80;95.70;;;;;;5090265;28;20422;-78
2021/07/09 06:13:21;;;;;;;100.25;49.70;;;16.80;95.40;;;;;;5071685;28;20749;-79
2021/07/09 06:15:46;;;;;;;103.55;53.72;;;16.90;95.00;;;;;;5090130;28;20413;-80
2021/07/09 06:18:12;;;;;;;104.70;52.10;;;16.90;94.90;;;;;;5090581;28;20387;-78
2021/07/09 06:20:37;;;;;;;107.85;52.15;;;16.80;95.10;;;;;;5084683;28;20425;-82
2021/07/09 06:23:03;;;;;;;109.80;54.00;;;16.90;94.80;;;;;;5078292;28;21206;-82
2021/07/09 06:25:29;;;;;;;114.97;56.00;;;16.90;94.30;;;;;;5079067;28;20382;-80
2021/07/09 06:27:55;;;;;;;112.45;54.10;;;17.00;94.50;;;;;;5077609;28;20382;-79
2021/07/09 06:30:20;;;;;;;108.13;53.40;;;17.00;94.30;;;;;;5077173;28;20757;-78
2021/07/09 06:32:46;;;;;;;100.20;51.90;;;17.00;94.80;;;;;;5077576;28;20782;-80
2021/07/09 06:35:12;;;;;;;104.78;52.58;;;16.90;94.10;;;;;;5079237;28;20485;-77
2021/07/09 06:37:38;;;;;;;87.20;45.33;;;17.00;94.10;;;;;;5088638;28;20587;-80
2021/07/09 06:40:06;;;;;;;86.40;45.38;;;17.00;93.60;;;;;;5088440;28;20380;-77
2021/07/09 06:42:31;;;;;;;72.68;41.10;;;17.00;93.70;;;;;;5071329;28;20437;-80
2021/07/09 06:44:57;;;;;;;66.00;37.78;;;17.10;93.40;;;;;;5089331;28;20866;-77
2021/07/09 06:47:22;;;;;;;67.63;38.70;;;17.10;92.90;;;;;;5089483;28;20753;-77
2021/07/09 06:49:48;;;;;;;69.72;37.85;;;17.20;93.20;;;;;;5088642;28;20908;-76
2021/07/09 06:52:13;;;;;;;56.78;34.67;;;17.20;93.40;;;;;;5088281;28;20381;-78
2021/07/09 06:54:39;;;;;;;54.23;32.33;;;17.10;93.10;;;;;;5088725;28;20459;-75
2021/07/09 06:57:05;;;;;;;56.15;33.47;;;17.20;92.90;;;;;;5088260;28;20382;-74
2021/07/09 06:59:30;;;;;;;51.83;32.05;;;17.30;93.20;;;;;;5088488;28;20413;-74
2021/07/09 07:01:56;;;;;;;50.17;30.63;;;17.20;93.20;;;;;;5088209;28;20695;-74
2021/07/09 07:04:22;;;;;;;54.38;32.47;;;17.30;93.00;;;;;;5089136;28;20374;-74
2021/07/09 07:06:48;;;;;;;56.78;33.72;;;17.20;93.40;;;;;;5071173;28;20386;-75
2021/07/09 07:09:13;;;;;;;47.83;29.52;;;17.30;93.50;;;;;;5089251;28;20439;-74
2021/07/09 07:11:39;;;;;;;54.05;33.45;;;17.30;93.30;;;;;;5088912;28;20866;-74
2021/07/09 07:14:05;;;;;;;53.70;30.50;;;17.40;93.10;;;;;;5089706;28;20374;-75
2021/07/09 07:16:30;;;;;;;44.78;28.10;;;17.40;92.80;;;;;;5071256;28;20402;-75
2021/07/09 07:18:56;;;;;;;47.07;29.13;;;17.30;91.90;;;;;;5088185;28;20385;-74
2021/07/09 07:21:21;;;;;;;49.03;29.10;;;17.30;92.50;;;;;;5082990;28;20830;-73
2021/07/09 07:23:47;;;;;;;42.17;27.88;;;17.40;92.40;;;;;;5088806;28;20414;-75
2021/07/09 07:26:13;;;;;;;43.07;27.73;;;17.30;92.40;;;;;;5088930;28;20850;-73
2021/07/09 07:28:39;;;;;;;46.42;28.88;;;17.40;92.60;;;;;;5088093;28;20436;-74
2021/07/09 07:31:04;;;;;;;40.72;26.67;;;17.40;92.40;;;;;;5088520;28;20823;-74
2021/07/09 07:33:30;;;;;;;42.37;25.77;;;17.40;92.20;;;;;;5088352;28;20382;-74
2021/07/09 07:35:58;;;;;;;40.80;25.08;;;17.40;92.30;;;;;;5088945;28;20402;-74
2021/07/09 07:38:24;;;;;;;36.40;22.10;;;17.40;92.50;;;;;;5085961;28;20411;-74
2021/07/09 07:40:49;;;;;;;44.83;22.27;;;17.40;91.70;;;;;;5089271;28;20411;-74
2021/07/09 07:43:15;;;;;;;36.30;23.60;;;17.40;91.90;;;;;;5088690;28;20370;-78
2021/07/09 07:45:41;;;;;;;36.27;22.83;;;17.40;92.10;;;;;;5089106;28;20509;-74
2021/07/09 07:48:07;;;;;;;36.27;21.87;;;17.50;91.80;;;;;;5089236;28;20615;-76
2021/07/09 07:50:32;;;;;;;36.43;21.30;;;17.50;92.00;;;;;;5088732;28;20456;-74
2021/07/09 07:52:58;;;;;;;34.35;22.02;;;17.60;92.10;;;;;;5089691;28;20846;-74
2021/07/09 07:55:24;;;;;;;35.47;21.93;;;17.60;92.20;;;;;;5088656;28;20995;-75
2021/07/09 07:57:49;;;;;;;33.70;21.42;;;17.60;92.20;;;;;;5093140;28;20380;-77
2021/07/09 08:00:15;;;;;;;34.20;21.45;;;17.70;92.00;;;;;;5074499;28;20760;-75
2021/07/09 08:02:41;;;;;;;36.63;21.52;;;17.50;92.10;;;;;;5093095;28;20413;-75
2021/07/09 08:05:08;;;;;;;30.77;20.08;;;17.40;92.60;;;;;;5093068;28;20374;-76
2021/07/09 08:07:34;;;;;;;39.40;20.30;;;17.50;92.00;;;;;;5092139;28;20366;-75
2021/07/09 08:10:00;;;;;;;31.70;18.42;;;17.40;91.50;;;;;;5092338;28;20384;-77
2021/07/09 08:12:25;;;;;;;33.60;19.30;;;17.30;92.00;;;;;;5092538;28;20381;-76
2021/07/09 08:14:51;;;;;;;33.73;19.63;;;17.30;92.10;;;;;;5092490;28;20791;-77
2021/07/09 08:17:16;;;;;;;32.55;18.52;;;17.40;91.80;;;;;;5074003;28;20877;-76
2021/07/09 08:19:42;;;;;;;32.77;19.27;;;17.40;91.80;;;;;;5092192;28;20710;-78
2021/07/09 08:22:07;;;;;;;26.80;16.35;;;17.50;91.70;;;;;;5092014;28;20450;-80
2021/07/09 08:24:33;;;;;;;34.43;18.40;;;17.50;90.70;;;;;;5092464;28;20378;-77
2021/07/09 08:26:59;;;;;;;29.90;17.50;;;17.50;91.50;;;;;;5091887;28;20431;-76
2021/07/09 08:29:25;;;;;;;31.98;16.75;;;17.50;91.70;;;;;;5072946;28;20908;-77
2021/07/09 08:31:52;;;;;;;24.95;13.93;;;17.70;90.80;;;;;;5073131;28;20432;-77
2021/07/09 08:34:17;;;;;;;31.63;15.60;;;17.70;90.00;;;;;;5091710;28;20370;-76
2021/07/09 08:36:43;;;;;;;26.97;14.37;;;17.70;90.20;;;;;;5073896;28;20854;-78
2021/07/09 08:39:08;;;;;;;25.07;15.10;;;17.80;90.00;;;;;;5091925;28;20468;-79
2021/07/09 08:41:34;;;;;;;28.30;16.05;;;17.80;89.90;;;;;;5091491;28;20441;-77
2021/07/09 08:43:59;;;;;;;29.83;15.33;;;17.80;90.90;;;;;;5092020;28;20870;-77
2021/07/09 08:46:27;;;;;;;24.23;14.15;;;17.70;90.20;;;;;;5091580;28;20438;-78
2021/07/09 08:48:53;;;;;;;25.77;15.40;;;17.60;89.50;;;;;;5091663;28;20382;-77
2021/07/09 08:51:19;;;;;;;26.05;15.27;;;17.70;89.50;;;;;;5091596;28;20680;-76
2021/07/09 08:53:45;;;;;;;25.17;14.95;;;17.90;89.10;;;;;;5091705;28;20373;-75
2021/07/09 08:56:10;;;;;;;27.93;15.17;;;17.90;88.00;;;;;;5091847;28;20830;-78
2021/07/09 08:58:36;;;;;;;25.57;14.97;;;17.90;88.50;;;;;;5090813;28;20402;-74
2021/07/09 09:01:05;;;;;;;24.20;15.00;;;18.00;89.20;;;;;;5091753;28;20886;-76
2021/07/09 09:03:30;;;;;;;27.45;14.30;;;18.00;88.30;;;;;;5091111;28;20382;-76
2021/07/09 09:06:01;;;;;;;24.37;15.50;;;18.10;87.50;;;;;;5091850;28;20385;-76
2021/07/09 09:08:28;;;;;;;29.30;16.20;;;18.10;87.40;;;;;;5089898;28;20728;-78
2021/07/09 09:10:58;;;;;;;25.50;15.77;;;18.30;88.50;;;;;;5091263;28;20449;-76
2021/07/09 09:13:29;;;;;;;27.48;16.20;;;18.40;87.50;;;;;;5091123;28;20438;-76
2021/07/09 09:16:10;;;;;;;33.88;19.48;;;18.40;87.70;;;;;;5091060;28;20861;-76
2021/07/09 09:18:47;;;;;;;35.75;21.95;;;18.30;87.90;;;;;;5090641;28;20471;-78
2021/07/09 09:21:22;;;;;;;36.67;24.02;;;18.20;89.10;;;;;;5090716;28;20724;-75
2021/07/09 09:23:47;;;;;;;38.25;25.67;;;18.50;89.60;;;;;;5102190;28;20389;-75
2021/07/09 09:26:13;;;;;;;39.25;23.85;;;18.70;88.80;;;;;;5090638;28;20529;-75
2021/07/09 09:28:40;;;;;;;31.30;21.85;;;18.60;89.60;;;;;;5072453;28;20468;-77
2021/07/09 09:31:07;;;;;;;30.83;21.42;;;18.80;87.10;;;;;;5090975;28;20388;-77
2021/07/09 09:33:37;;;;;;;38.95;23.92;;;18.30;87.40;;;;;;5072655;28;20423;-75
2021/07/09 09:36:08;;;;;;;31.52;19.63;;;18.40;89.50;;;;;;5090921;28;20446;-75
2021/07/09 09:38:33;;;;;;;26.15;18.52;;;18.60;84.90;;;;;;5090241;28;20769;-77
2021/07/09 09:41:00;;;;;;;30.15;20.83;;;18.90;87.10;;;;;;5072699;28;20386;-76
2021/07/09 09:43:29;;;;;;;31.65;20.10;;;18.90;86.90;;;;;;5090285;28;20366;-75
2021/07/09 09:46:07;;;;;;;24.88;16.98;;;19.10;86.40;;;;;;5090454;28;21031;-75
2021/07/09 09:48:46;;;;;;;24.00;14.75;;;19.20;84.00;;;;;;5090130;28;20726;-76
2021/07/09 09:51:22;;;;;;;24.90;16.15;;;19.30;82.00;;;;;;5090688;28;20718;-76
2021/07/09 09:53:52;;;;;;;23.80;16.73;;;19.30;84.60;;;;;;5090494;28;20470;-75
2021/07/09 09:56:40;;;;;;;24.75;14.80;;;19.20;83.20;;;;;;5090202;28;20496;-75
2021/07/09 09:59:25;;;;;;;25.87;15.00;;;19.10;83.30;;;;;;5089956;28;20951;-74
2021/07/09 10:01:55;;;;;;;21.55;14.07;;;19.30;81.00;;;;;;5072111;28;20389;-74
2021/07/09 10:04:22;;;;;;;27.92;14.27;;;19.30;82.80;;;;;;5090700;28;20439;-74
2021/07/09 10:06:48;;;;;;;19.60;14.23;;;19.80;85.10;;;;;;5090503;28;20374;-75
2021/07/09 10:09:15;;;;;;;23.88;15.32;;;19.90;82.40;;;;;;5089823;28;20370;-78
2021/07/09 10:11:42;;;;;;;20.10;13.10;;;19.80;81.40;;;;;;5089670;28;20378;-74
2021/07/09 10:14:13;;;;;;;17.73;11.90;;;19.70;80.20;;;;;;5090084;28;20473;-75
2021/07/09 10:16:47;;;;;;;18.45;13.23;;;19.40;81.70;;;;;;5090106;28;20398;-77
2021/07/09 10:19:19;;;;;;;19.67;13.60;;;19.70;79.80;;;;;;5089433;28;20380;-74
2021/07/09 10:21:45;;;;;;;20.65;14.48;;;19.60;78.20;;;;;;5090181;28;20370;-75
2021/07/09 10:24:15;;;;;;;18.83;12.85;;;19.90;82.90;;;;;;5089612;28;20378;-79
2021/07/09 10:26:43;;;;;;;17.83;11.27;;;19.90;80.00;;;;;;5071719;28;20481;-74
2021/07/09 10:29:20;;;;;;;13.60;10.38;;;20.20;77.50;;;;;;5088723;28;20378;-75
2021/07/09 10:31:49;;;;;;;16.70;11.67;;;20.20;77.40;;;;;;5071384;28;20484;-76
2021/07/09 10:34:37;;;;;;;17.92;10.77;;;20.20;78.00;;;;;;5089709;28;20366;-75
2021/07/09 10:37:08;;;;;;;16.83;10.45;;;20.40;78.90;;;;;;5089246;28;20485;-76
2021/07/09 10:39:39;;;;;;;17.48;12.18;;;20.30;76.00;;;;;;5089404;28;20437;-77
2021/07/09 10:42:24;;;;;;;22.08;11.93;;;20.00;79.00;;;;;;5071477;28;20447;-77
2021/07/09 10:44:58;;;;;;;18.60;12.00;;;19.80;77.80;;;;;;5089816;28;20377;-75
2021/07/09 10:47:40;;;;;;;16.27;10.00;;;19.80;77.60;;;;;;5089046;28;20381;-75
2021/07/09 10:50:32;;;;;;;16.92;11.00;;;19.80;80.50;;;;;;5083345;28;20491;-76
2021/07/09 10:53:07;;;;;;;18.07;11.07;;;19.70;77.90;;;;;;5089981;28;20802;-76
2021/07/09 10:55:37;;;;;;;15.57;10.88;;;19.70;80.10;;;;;;5087763;28;20405;-76
2021/07/09 10:58:09;;;;;;;16.00;11.00;;;20.30;81.40;;;;;;5089407;28;20382;-77
2021/07/09 11:00:47;;;;;;;15.90;10.40;;;20.60;80.20;;;;;;5088945;28;20381;-75
2021/07/09 11:03:35;;;;;;;15.52;10.23;;;20.80;77.60;;;;;;5089492;28;20734;-80
2021/07/09 11:06:36;;;;;;;15.20;9.07;;;21.10;78.80;;;;;;5089814;28;20441;-79
2021/07/09 11:09:04;;;;;;;16.42;6.85;;;20.70;75.80;;;;;;5087568;28;20390;-78
2021/07/09 11:11:47;;;;;;;11.40;7.30;;;20.70;76.20;;;;;;5089468;28;20469;-76
2021/07/09 11:14:16;;;;;;;8.93;6.50;;;20.30;75.40;;;;;;5088862;28;20903;-78
2021/07/09 11:16:44;;;;;;;9.60;6.00;;;20.90;74.00;;;;;;5088087;28;20406;-78
2021/07/09 11:19:22;;;;;;;8.75;5.00;;;21.00;74.90;;;;;;5089132;28;20406;-78
2021/07/09 11:22:02;;;;;;;8.63;4.53;;;21.20;75.70;;;;;;5087909;28;20711;-77
2021/07/09 11:24:30;;;;;;;5.05;3.70;;;21.20;68.60;;;;;;5089700;28;20378;-77
2021/07/09 11:27:00;;;;;;;13.88;3.78;;;21.10;70.80;;;;;;5088930;28;20469;-77
2021/07/09 11:29:28;;;;;;;10.10;3.85;;;21.10;68.80;;;;;;5089411;28;20374;-79
2021/07/09 11:32:05;;;;;;;5.10;3.30;;;20.90;71.90;;;;;;5090379;28;20477;-77
2021/07/09 11:34:39;;;;;;;5.22;3.30;;;21.00;68.10;;;;;;5093388;28;20853;-76
2021/07/09 11:37:09;;;;;;;5.30;3.05;;;21.30;66.90;;;;;;5092081;28;20394;-78
2021/07/09 11:39:40;;;;;;;5.65;3.65;;;21.10;69.60;;;;;;5091524;28;20386;-81
2021/07/09 11:42:29;;;;;;;5.60;3.50;;;20.90;67.90;;;;;;5093587;28;20393;-79
2021/07/09 11:45:06;;;;;;;9.93;4.07;;;20.90;67.20;;;;;;5092863;28;20439;-76
2021/07/09 11:47:34;;;;;;;7.27;3.97;;;20.70;66.50;;;;;;5092651;28;20398;-76
2021/07/09 11:50:07;;;;;;;8.75;4.07;;;20.50;69.80;;;;;;5092138;28;20404;-76
2021/07/09 11:52:35;;;;;;;7.63;4.50;;;20.40;69.90;;;;;;5090309;28;20385;-77
2021/07/09 11:55:07;;;;;;;7.15;4.75;;;20.50;69.40;;;;;;5074387;28;20488;-75
2021/07/09 11:57:38;;;;;;;7.13;4.10;;;20.50;69.20;;;;;;5092853;28;20441;-76
2021/07/09 12:00:07;;;;;;;7.45;4.03;;;20.80;70.60;;;;;;5074502;28;20382;-77
2021/07/09 12:02:33;;;;;;;7.47;4.27;;;20.90;68.30;;;;;;5091777;28;20465;-74
2021/07/09 12:05:02;;;;;;;8.70;3.50;;;20.80;67.40;;;;;;5074606;28;20477;-75
2021/07/09 12:07:29;;;;;;;6.72;3.45;;;20.80;67.50;;;;;;5092162;28;20370;-75
2021/07/09 12:10:05;;;;;;;6.38;3.80;;;20.90;67.40;;;;;;5092444;28;20400;-76
2021/07/09 12:12:33;;;;;;;9.52;3.90;;;20.90;69.80;;;;;;5092390;28;20417;-75
2021/07/09 12:15:03;;;;;;;6.93;4.10;;;20.90;69.60;;;;;;5092245;28;20855;-76
2021/07/09 12:17:38;;;;;;;6.97;4.30;;;20.90;69.50;;;;;;5091976;28;20377;-75
2021/07/09 12:20:07;;;;;;;8.18;3.90;;;20.70;67.20;;;;;;5073929;28;20386;-75
2021/07/09 12:22:45;;;;;;;7.88;3.80;;;20.50;68.90;;;;;;5092149;28;20392;-76
2021/07/09 12:25:31;;;;;;;5.25;3.80;;;20.50;70.10;;;;;;5092586;28;20401;-77
2021/07/09 12:28:03;;;;;;;7.57;3.80;;;20.70;68.70;;;;;;5091760;28;20893;-76
2021/07/09 12:30:41;;;;;;;9.95;3.78;;;20.80;69.40;;;;;;5091640;28;20469;-78
2021/07/09 12:33:12;;;;;;;6.75;3.60;;;21.00;69.30;;;;;;5092408;28;20394;-77
2021/07/09 12:35:38;;;;;;;8.95;3.50;;;21.10;65.90;;;;;;5091282;28;20441;-77